createdAt,value
2023-05-10T00:00:56.462Z,58.24
2023-05-10T00:03:23.395Z,58.00
2023-05-10T00:05:50.135Z,57.89
2023-05-10T00:08:16.759Z,57.70
2023-05-10T00:10:43.619Z,58.10
2023-05-10T00:13:10.378Z,58.36
2023-05-10T00:15:37.143Z,59.41
2023-05-10T00:18:03.857Z,59.80
2023-05-10T00:20:30.790Z,59.29
2023-05-10T00:22:57.530Z,60.23
2023-05-10T00:25:24.302Z,59.95
2023-05-10T00:27:51.157Z,59.23
2023-05-10T00:30:18.155Z,60.17
2023-05-10T00:32:45.360Z,60.19
2023-05-10T00:35:12.240Z,60.52
2023-05-10T00:37:38.889Z,61.94
2023-05-10T00:40:07.406Z,61.02
2023-05-10T00:42:34.520Z,61.17
2023-05-10T00:45:01.057Z,60.99
2023-05-10T00:47:28.165Z,60.62
2023-05-10T00:49:55.289Z,62.32
2023-05-10T00:52:21.994Z,62.31
2023-05-10T00:54:48.839Z,62.92
2023-05-10T00:57:15.925Z,61.97
2023-05-10T00:59:42.677Z,62.41
2023-05-10T01:02:09.640Z,63.28
2023-05-10T01:04:36.708Z,64.54
2023-05-10T01:07:03.495Z,65.86
2023-05-10T01:09:30.178Z,66.13
2023-05-10T01:11:57.752Z,65.73
2023-05-10T01:14:26.218Z,67.58
2023-05-10T01:16:54.332Z,68.94
2023-05-10T01:19:26.509Z,68.69
2023-05-10T01:22:30.292Z,69.21
2023-05-10T01:25:06.119Z,72.76
2023-05-10T01:27:50.837Z,70.43
2023-05-10T01:33:09.066Z,70.92
2023-05-10T01:35:49.577Z,73.85
2023-05-10T01:38:48.476Z,73.21
2023-05-10T01:41:17.791Z,76.09
2023-05-10T01:43:56.841Z,75.25
2023-05-10T01:46:33.873Z,75.14
2023-05-10T01:49:03.451Z,73.06
2023-05-10T01:51:40.531Z,74.62
2023-05-10T01:54:09.297Z,75.84
2023-05-10T01:56:38.814Z,77.85
2023-05-10T01:59:14.440Z,78.13
2023-05-10T02:01:41.698Z,78.13
2023-05-10T02:04:11.139Z,77.38
2023-05-10T02:06:39.341Z,76.33
2023-05-10T02:09:07.748Z,76.97
2023-05-10T02:11:34.798Z,77.44
2023-05-10T02:14:02.413Z,78.01
2023-05-10T02:16:31.987Z,78.59
2023-05-10T02:19:00.706Z,77.21
2023-05-10T02:21:29.120Z,77.80
2023-05-10T02:23:57.595Z,78.88
2023-05-10T02:26:26.228Z,79.64
2023-05-10T02:28:55.807Z,77.74
2023-05-10T02:31:23.408Z,79.69
2023-05-10T02:33:51.047Z,79.85
2023-05-10T02:36:18.574Z,80.80
2023-05-10T02:38:47.144Z,79.53
2023-05-10T02:41:14.206Z,81.17
2023-05-10T02:43:42.181Z,80.14
2023-05-10T02:46:09.002Z,81.05
2023-05-10T02:48:35.794Z,81.53
2023-05-10T02:51:08.154Z,82.08
2023-05-10T02:53:38.927Z,83.54
2023-05-10T02:56:12.053Z,83.52
2023-05-10T02:58:38.749Z,83.42
2023-05-10T03:01:05.503Z,83.10
2023-05-10T03:03:32.132Z,84.10
2023-05-10T03:05:59.508Z,84.54
2023-05-10T03:08:26.411Z,84.62
2023-05-10T03:11:17.562Z,83.76
2023-05-10T03:13:49.619Z,84.61
2023-05-10T03:16:23.423Z,84.89
2023-05-10T03:18:54.986Z,85.23
2023-05-10T03:21:24.215Z,84.33
2023-05-10T03:24:01.442Z,84.85
2023-05-10T03:26:29.498Z,86.40
2023-05-10T03:28:56.999Z,86.78
2023-05-10T03:31:23.706Z,87.47
2023-05-10T03:33:51.756Z,87.85
2023-05-10T03:36:18.889Z,87.87
2023-05-10T03:38:45.814Z,87.54
2023-05-10T03:41:12.603Z,87.12
2023-05-10T03:43:39.510Z,86.97
2023-05-10T03:46:07.089Z,86.61
2023-05-10T03:48:34.369Z,88.09
2023-05-10T03:51:01.043Z,86.14
2023-05-10T03:53:28.019Z,88.15
2023-05-10T03:55:54.727Z,87.85
2023-05-10T03:58:21.426Z,87.34
2023-05-10T04:00:48.062Z,87.70
2023-05-10T04:03:15.148Z,89.29
2023-05-10T04:05:41.942Z,89.08
2023-05-10T04:08:08.533Z,89.55
2023-05-10T04:10:35.390Z,89.00
2023-05-10T04:13:02.272Z,89.11
2023-05-10T04:15:28.993Z,92.53
2023-05-10T04:17:55.673Z,93.16
2023-05-10T04:20:22.346Z,92.98
2023-05-10T04:22:48.970Z,95.90
2023-05-10T04:25:15.602Z,94.26
2023-05-10T04:27:42.669Z,95.97
2023-05-10T04:30:09.887Z,95.33
2023-05-10T04:32:36.496Z,96.69
2023-05-10T04:35:05.738Z,98.73
2023-05-10T04:37:32.383Z,94.99
2023-05-10T04:40:00.946Z,95.51
2023-05-10T04:42:27.522Z,95.07
2023-05-10T04:44:54.217Z,95.14
2023-05-10T04:47:20.947Z,97.85
2023-05-10T04:49:47.699Z,96.19
2023-05-10T04:52:15.391Z,99.93
2023-05-10T04:54:41.983Z,100.00
2023-05-10T04:57:08.794Z,100.00
2023-05-10T04:59:38.158Z,100.00
2023-05-10T05:02:05.847Z,97.55
2023-05-10T05:04:32.726Z,96.92
2023-05-10T05:06:59.327Z,97.02
2023-05-10T05:09:25.928Z,97.16
2023-05-10T05:11:52.590Z,95.24
2023-05-10T05:14:19.240Z,97.29
2023-05-10T05:16:45.815Z,100.00
2023-05-10T05:19:12.663Z,99.70
2023-05-10T05:21:39.641Z,98.93
2023-05-10T05:24:06.889Z,97.26
2023-05-10T05:26:33.508Z,99.50
2023-05-10T05:29:00.147Z,100.00
2023-05-10T05:31:27.026Z,100.00
2023-05-10T05:33:53.641Z,100.00
2023-05-10T05:36:20.229Z,100.00
2023-05-10T05:38:46.797Z,100.00
2023-05-10T05:41:13.439Z,100.00
2023-05-10T05:43:40.279Z,100.00
2023-05-10T05:46:07.459Z,100.00
2023-05-10T05:48:34.042Z,100.00
2023-05-10T05:51:00.700Z,100.00
2023-05-10T05:53:27.444Z,100.00
2023-05-10T05:55:59.305Z,100.00
2023-05-10T05:58:26.967Z,100.00
2023-05-10T06:00:53.740Z,100.00
2023-05-10T06:03:21.080Z,100.00
2023-05-10T06:05:48.905Z,100.00
2023-05-10T06:08:15.717Z,100.00
2023-05-10T06:10:42.404Z,100.00
2023-05-10T06:13:09.105Z,100.00
2023-05-10T06:15:35.895Z,100.00
2023-05-10T06:18:02.568Z,100.00
2023-05-10T06:20:29.252Z,100.00
2023-05-10T06:22:55.902Z,100.00
2023-05-10T06:25:22.612Z,100.00
2023-05-10T06:27:53.449Z,100.00
2023-05-10T06:30:21.292Z,100.00
2023-05-10T06:32:48.189Z,100.00
2023-05-10T06:35:15.011Z,100.00
2023-05-10T06:37:42.078Z,100.00
2023-05-10T06:40:09.081Z,100.00
2023-05-10T06:42:35.759Z,100.00
2023-05-10T06:45:02.450Z,100.00
2023-05-10T06:47:29.060Z,100.00
2023-05-10T06:49:56.813Z,100.00
2023-05-10T06:52:24.174Z,100.00
2023-05-10T06:54:50.846Z,100.00
2023-05-10T06:57:30.586Z,100.00
2023-05-10T06:59:58.934Z,100.00
2023-05-10T07:02:25.701Z,100.00
2023-05-10T07:04:53.159Z,100.00
2023-05-10T07:07:20.139Z,100.00
2023-05-10T07:09:47.090Z,100.00
2023-05-10T07:12:15.313Z,100.00
2023-05-10T07:14:43.050Z,100.00
2023-05-10T07:17:09.971Z,100.00
2023-05-10T07:19:37.037Z,100.00
2023-05-10T07:22:04.068Z,100.00
2023-05-10T07:24:32.316Z,100.00
2023-05-10T07:26:59.313Z,100.00
2023-05-10T07:29:26.166Z,100.00
2023-05-10T07:31:53.079Z,100.00
2023-05-10T07:34:19.814Z,100.00
2023-05-10T07:36:46.518Z,100.00
2023-05-10T07:39:18.589Z,100.00
2023-05-10T07:41:53.027Z,99.69
2023-05-10T07:44:21.251Z,100.00
2023-05-10T07:46:48.737Z,99.25
2023-05-10T07:49:15.423Z,98.41
2023-05-10T07:51:43.394Z,98.15
2023-05-10T07:54:10.118Z,98.52
2023-05-10T07:56:37.214Z,98.22
2023-05-10T07:59:07.453Z,99.17
2023-05-10T08:01:35.463Z,97.23
2023-05-10T08:04:02.912Z,95.92
2023-05-10T08:06:30.953Z,95.95
2023-05-10T08:08:58.076Z,96.13
2023-05-10T08:11:24.873Z,96.16
2023-05-10T08:13:52.458Z,94.76
2023-05-10T08:16:19.323Z,93.09
2023-05-10T08:18:48.099Z,91.84
2023-05-10T08:21:15.865Z,93.11
2023-05-10T08:23:44.737Z,93.34
2023-05-10T08:26:11.830Z,91.00
2023-05-10T08:28:38.628Z,90.51
2023-05-10T08:31:06.318Z,89.51
2023-05-10T08:33:33.135Z,87.85
2023-05-10T08:35:59.885Z,86.92
2023-05-10T08:38:27.018Z,88.03
2023-05-10T08:40:59.535Z,85.37
2023-05-10T08:43:30.268Z,85.14
2023-05-10T08:45:58.017Z,84.51
2023-05-10T08:48:26.076Z,84.12
2023-05-10T08:50:57.496Z,84.51
2023-05-10T08:53:27.806Z,85.01
2023-05-10T08:55:54.826Z,84.78
2023-05-10T08:58:21.547Z,86.10
2023-05-10T09:00:51.942Z,88.08
2023-05-10T09:03:19.182Z,88.98
2023-05-10T09:05:47.017Z,88.39
2023-05-10T09:08:16.797Z,88.24
2023-05-10T09:10:45.035Z,88.39
2023-05-10T09:13:12.898Z,88.03
2023-05-10T09:15:40.072Z,88.72
2023-05-10T09:18:07.037Z,89.29
2023-05-10T09:20:33.769Z,88.20
2023-05-10T09:23:00.594Z,88.72
2023-05-10T09:25:27.465Z,88.48
2023-05-10T09:27:54.468Z,87.13
2023-05-10T09:30:29.208Z,88.12
2023-05-10T09:32:57.142Z,88.34
2023-05-10T09:35:28.830Z,88.10
2023-05-10T09:37:58.756Z,88.79
2023-05-10T09:40:27.381Z,88.71
2023-05-10T09:43:01.769Z,89.35
2023-05-10T09:45:32.950Z,89.58
2023-05-10T09:48:01.810Z,88.00
2023-05-10T09:50:29.135Z,87.55
2023-05-10T09:53:01.667Z,87.01
2023-05-10T09:55:50.318Z,85.90
2023-05-10T09:58:17.138Z,87.42
2023-05-10T10:00:45.957Z,85.93
2023-05-10T10:03:21.104Z,85.40
2023-05-10T10:05:49.530Z,85.01
2023-05-10T10:08:17.757Z,84.02
2023-05-10T10:10:47.540Z,82.20
2023-05-10T10:13:15.816Z,83.07
2023-05-10T10:15:45.111Z,82.23
2023-05-10T10:18:18.140Z,81.44
2023-05-10T10:20:44.959Z,79.83
2023-05-10T10:23:11.610Z,79.32
2023-05-10T10:25:39.689Z,79.41
2023-05-10T10:28:27.554Z,79.95
2023-05-10T10:30:57.500Z,78.90
2023-05-10T10:33:48.602Z,80.13
2023-05-10T10:36:16.592Z,80.98
2023-05-10T10:38:49.274Z,81.75
2023-05-10T10:41:28.966Z,82.98
2023-05-10T10:44:27.203Z,82.62
2023-05-10T10:47:30.964Z,83.16
2023-05-10T10:50:06.661Z,82.02
2023-05-10T10:52:45.327Z,81.76
2023-05-10T10:55:19.341Z,80.21
2023-05-10T10:57:56.435Z,79.29
2023-05-10T11:00:34.519Z,79.75
2023-05-10T11:03:07.287Z,79.25
2023-05-10T11:05:34.037Z,78.48
2023-05-10T11:08:01.739Z,77.16
2023-05-10T11:10:28.602Z,76.90
2023-05-10T11:13:09.408Z,75.70
2023-05-10T11:15:38.262Z,75.04
2023-05-10T11:18:28.313Z,76.00
2023-05-10T11:20:59.943Z,74.21
2023-05-10T11:23:44.908Z,75.26
2023-05-10T11:26:12.945Z,73.68
2023-05-10T11:28:47.153Z,73.98
2023-05-10T11:31:18.487Z,75.31
2023-05-10T11:33:49.340Z,72.56
2023-05-10T11:36:18.392Z,70.74
2023-05-10T11:38:45.396Z,70.40
2023-05-10T11:41:13.371Z,69.39
2023-05-10T11:43:41.267Z,69.39
2023-05-10T11:46:11.461Z,69.46
2023-05-10T11:48:40.761Z,71.22
2023-05-10T11:51:12.106Z,71.57
2023-05-10T11:53:42.132Z,70.80
2023-05-10T11:56:10.254Z,71.37
2023-05-10T11:58:38.678Z,71.64
2023-05-10T12:01:07.412Z,70.99
2023-05-10T12:03:35.037Z,70.96
2023-05-10T12:06:03.098Z,70.50
2023-05-10T12:08:30.868Z,70.08
2023-05-10T12:11:14.715Z,69.64
2023-05-10T12:13:42.869Z,69.01
2023-05-10T12:16:18.185Z,68.78
2023-05-10T12:18:46.605Z,68.34
2023-05-10T12:21:13.834Z,68.57
2023-05-10T12:23:40.842Z,69.00
2023-05-10T12:26:10.053Z,69.08
2023-05-10T12:28:36.750Z,69.07
2023-05-10T12:31:04.240Z,70.16
2023-05-10T12:33:39.973Z,69.21
2023-05-10T12:36:07.837Z,69.32
2023-05-10T12:38:36.805Z,69.31
2023-05-10T12:41:05.646Z,69.54
2023-05-10T12:43:33.153Z,69.66
2023-05-10T12:46:00.239Z,70.37
2023-05-10T12:48:27.031Z,70.25
2023-05-10T12:50:53.733Z,70.54
2023-05-10T12:53:20.848Z,70.89
2023-05-10T12:55:47.565Z,71.66
2023-05-10T12:58:31.445Z,72.05
2023-05-10T13:01:02.112Z,71.79
2023-05-10T13:03:28.913Z,71.33
2023-05-10T13:05:55.519Z,72.45
2023-05-10T13:08:22.242Z,72.32
2023-05-10T13:10:49.384Z,72.29
2023-05-10T13:13:16.867Z,72.33
2023-05-10T13:15:43.451Z,72.27
2023-05-10T13:18:10.230Z,72.19
2023-05-10T13:20:36.964Z,72.62
2023-05-10T13:23:03.900Z,73.13
2023-05-10T13:25:31.016Z,73.86
2023-05-10T13:27:57.697Z,73.99
2023-05-10T13:30:24.981Z,74.11
2023-05-10T13:32:51.872Z,73.87
2023-05-10T13:35:18.563Z,73.54
2023-05-10T13:37:45.266Z,72.36
2023-05-10T13:40:12.577Z,72.03
2023-05-10T13:42:39.343Z,71.92
2023-05-10T13:45:06.955Z,72.00
2023-05-10T13:47:33.931Z,72.24
2023-05-10T13:50:00.701Z,71.96
2023-05-10T13:52:27.699Z,71.63
2023-05-10T13:54:56.289Z,72.53
2023-05-10T13:57:24.154Z,72.42
2023-05-10T13:59:51.351Z,71.52
2023-05-10T14:02:18.288Z,72.04
2023-05-10T14:04:44.935Z,71.48
2023-05-10T14:07:11.608Z,71.36
2023-05-10T14:09:38.309Z,72.26
2023-05-10T14:12:05.036Z,73.49
2023-05-10T14:14:31.725Z,74.21
2023-05-10T14:16:58.470Z,73.46
2023-05-10T14:19:25.177Z,73.46
2023-05-10T14:21:53.038Z,73.63
2023-05-10T14:24:19.782Z,75.34
2023-05-10T14:26:46.378Z,74.55
2023-05-10T14:29:13.004Z,75.00
2023-05-10T14:31:40.019Z,76.03
2023-05-10T14:34:06.986Z,78.38
2023-05-10T14:36:33.739Z,79.42
2023-05-10T14:39:00.468Z,81.18
2023-05-10T14:41:27.052Z,83.70
2023-05-10T14:43:54.178Z,85.92
2023-05-10T14:46:20.846Z,88.33
2023-05-10T14:48:47.604Z,92.15
2023-05-10T14:51:14.397Z,95.34
2023-05-10T14:53:41.207Z,94.78
2023-05-10T14:56:08.038Z,96.36
2023-05-10T14:58:34.727Z,95.12
2023-05-10T15:01:01.808Z,95.85
2023-05-10T15:03:29.167Z,95.88
2023-05-10T15:05:58.616Z,95.76
2023-05-10T15:08:28.822Z,92.96
2023-05-10T15:10:56.960Z,92.63
2023-05-10T15:13:23.604Z,93.39
2023-05-10T15:15:50.236Z,93.43
2023-05-10T15:18:17.339Z,93.71
2023-05-10T15:20:44.260Z,94.90
2023-05-10T15:23:10.930Z,93.97
2023-05-10T15:25:38.558Z,93.31
2023-05-10T15:28:05.644Z,93.40
2023-05-10T15:30:32.328Z,92.67
2023-05-10T15:32:59.214Z,92.69
2023-05-10T15:35:27.162Z,91.99
2023-05-10T15:37:53.821Z,92.76
2023-05-10T15:40:20.463Z,91.33
2023-05-10T15:42:47.105Z,92.09
2023-05-10T15:45:14.220Z,93.20
2023-05-10T15:47:40.970Z,93.27
2023-05-10T15:50:08.442Z,92.79
2023-05-10T15:52:35.262Z,92.64
2023-05-10T15:55:02.123Z,91.85
2023-05-10T15:57:28.817Z,92.18
2023-05-10T15:59:56.370Z,92.61
2023-05-10T16:02:23.559Z,93.40
2023-05-10T16:04:50.398Z,94.17
2023-05-10T16:07:17.086Z,94.55
2023-05-10T16:09:44.079Z,93.68
2023-05-10T16:12:12.215Z,96.21
2023-05-10T16:14:38.873Z,95.14
2023-05-10T16:17:05.930Z,96.31
2023-05-10T16:19:32.698Z,95.05
2023-05-10T16:21:59.470Z,94.64
2023-05-10T16:24:26.586Z,93.67
2023-05-10T16:26:53.535Z,94.55
2023-05-10T16:29:20.310Z,95.25
2023-05-10T16:31:47.014Z,94.27
2023-05-10T16:34:13.794Z,93.57
2023-05-10T16:36:40.517Z,92.90
2023-05-10T16:39:07.415Z,92.93
2023-05-10T16:41:34.606Z,93.19
2023-05-10T16:44:01.985Z,92.99
2023-05-10T16:46:28.745Z,93.72
2023-05-10T16:48:56.057Z,93.61
2023-05-10T16:51:22.751Z,93.76
2023-05-10T16:53:49.791Z,93.05
2023-05-10T16:56:18.424Z,92.86
2023-05-10T16:58:46.697Z,92.98
2023-05-10T17:01:13.371Z,93.19
2023-05-10T17:03:40.151Z,93.49
2023-05-10T17:06:07.448Z,93.90
2023-05-10T17:08:34.828Z,93.87
2023-05-10T17:11:03.395Z,93.31
2023-05-10T17:13:30.533Z,93.25
2023-05-10T17:15:57.296Z,94.45
2023-05-10T17:18:24.069Z,95.10
2023-05-10T17:20:50.899Z,95.79
2023-05-10T17:23:17.577Z,95.70
2023-05-10T17:25:44.275Z,95.94
2023-05-10T17:28:11.012Z,96.88
2023-05-10T17:30:37.992Z,96.56
2023-05-10T17:33:05.565Z,96.90
2023-05-10T17:35:32.315Z,96.80
2023-05-10T17:37:59.042Z,96.71
2023-05-10T17:40:25.735Z,97.13
2023-05-10T17:42:52.367Z,96.79
2023-05-10T17:45:20.011Z,96.42
2023-05-10T17:47:46.812Z,97.25
2023-05-10T17:50:13.431Z,96.71
2023-05-10T17:52:40.105Z,96.47
2023-05-10T17:55:07.638Z,96.27
2023-05-10T17:57:34.860Z,98.13
2023-05-10T18:00:03.957Z,97.21
2023-05-10T18:02:30.670Z,97.22
2023-05-10T18:04:59.980Z,96.15
2023-05-10T18:07:27.222Z,96.21
2023-05-10T18:09:53.854Z,96.58
2023-05-10T18:12:20.522Z,96.62
2023-05-10T18:14:47.292Z,96.35
2023-05-10T18:17:14.034Z,97.05
2023-05-10T18:19:41.003Z,98.19
2023-05-10T18:22:10.470Z,99.45
2023-05-10T18:24:39.480Z,100.00
2023-05-10T18:27:11.393Z,100.00
2023-05-10T18:29:38.386Z,99.95
2023-05-10T18:32:06.846Z,100.00
2023-05-10T18:34:33.527Z,100.00
2023-05-10T18:37:00.328Z,99.88
2023-05-10T18:39:26.957Z,100.00
2023-05-10T18:41:53.742Z,100.00
2023-05-10T18:44:21.957Z,100.00
2023-05-10T18:46:48.647Z,99.76
2023-05-10T18:49:15.314Z,100.00
2023-05-10T18:51:41.928Z,99.71
2023-05-10T18:54:08.609Z,98.95
2023-05-10T18:56:35.295Z,98.15
2023-05-10T18:59:02.011Z,98.14
2023-05-10T19:01:28.696Z,98.11
2023-05-10T19:03:55.397Z,98.06
2023-05-10T19:06:22.061Z,97.68
2023-05-10T19:08:48.742Z,97.99
2023-05-10T19:11:15.720Z,97.74
2023-05-10T19:13:42.839Z,97.77
2023-05-10T19:16:16.655Z,98.00
2023-05-10T19:18:45.419Z,97.90
2023-05-10T19:21:12.663Z,97.83
2023-05-10T19:23:41.634Z,97.98
2023-05-10T19:26:09.204Z,97.88
2023-05-10T19:28:35.820Z,97.53
2023-05-10T19:31:02.618Z,97.67
2023-05-10T19:33:29.634Z,97.72
2023-05-10T19:35:56.386Z,98.07
2023-05-10T19:38:24.245Z,97.96
2023-05-10T19:41:00.114Z,98.40
2023-05-10T19:43:27.792Z,98.32
2023-05-10T19:45:55.112Z,98.57
2023-05-10T19:48:21.741Z,99.18
2023-05-10T19:50:48.333Z,99.09
2023-05-10T19:53:14.969Z,98.42
2023-05-10T19:55:41.712Z,98.20
2023-05-10T19:58:08.697Z,98.36
2023-05-10T20:00:35.622Z,98.15
2023-05-10T20:03:03.233Z,99.53
2023-05-10T20:05:29.794Z,98.42
2023-05-10T20:07:56.501Z,98.47
2023-05-10T20:10:25.153Z,98.13
2023-05-10T20:12:53.902Z,98.58
2023-05-10T20:15:22.887Z,98.37
2023-05-10T20:17:53.874Z,98.58
2023-05-10T20:20:21.711Z,98.60
2023-05-10T20:22:48.893Z,98.49
2023-05-10T20:25:16.750Z,98.97
2023-05-10T20:27:43.356Z,98.83
2023-05-10T20:30:10.842Z,99.12
2023-05-10T20:32:38.090Z,98.72
2023-05-10T20:35:05.925Z,98.71
2023-05-10T20:37:32.525Z,98.93
2023-05-10T20:39:59.167Z,98.29
2023-05-10T20:42:25.749Z,99.08
2023-05-10T20:44:52.416Z,99.74
2023-05-10T20:47:19.458Z,99.96
2023-05-10T20:49:46.324Z,100.00
2023-05-10T20:52:13.092Z,100.00
2023-05-10T20:54:39.736Z,99.93
2023-05-10T20:57:06.549Z,99.55
2023-05-10T20:59:33.379Z,99.45
2023-05-10T21:02:00.252Z,100.00
2023-05-10T21:04:27.252Z,100.00
2023-05-10T21:06:55.660Z,100.00
2023-05-10T21:09:22.697Z,100.00
2023-05-10T21:11:50.462Z,99.96
2023-05-10T21:14:17.075Z,100.00
2023-05-10T21:16:43.798Z,100.00
2023-05-10T21:19:10.590Z,100.00
2023-05-10T21:21:37.310Z,100.00
2023-05-10T21:24:04.301Z,100.00
2023-05-10T21:26:31.407Z,100.00
2023-05-10T21:28:59.333Z,100.00
2023-05-10T21:31:26.051Z,100.00
2023-05-10T21:33:52.699Z,100.00
2023-05-10T21:36:19.501Z,100.00
2023-05-10T21:38:46.806Z,100.00
2023-05-10T21:41:13.552Z,100.00
2023-05-10T21:43:40.321Z,100.00
2023-05-10T21:46:07.535Z,100.00
2023-05-10T21:48:34.164Z,100.00
2023-05-10T21:51:01.744Z,100.00
2023-05-10T21:53:28.895Z,100.00
2023-05-10T21:55:56.466Z,100.00
2023-05-10T21:58:23.584Z,100.00
2023-05-10T22:00:50.233Z,99.49
2023-05-10T22:03:17.876Z,99.53
2023-05-10T22:05:44.657Z,100.00
2023-05-10T22:08:11.304Z,100.00
2023-05-10T22:10:37.922Z,100.00
2023-05-10T22:13:04.764Z,100.00
2023-05-10T22:15:33.637Z,100.00
2023-05-10T22:18:02.469Z,100.00
2023-05-10T22:20:29.242Z,100.00
2023-05-10T22:22:56.160Z,100.00
2023-05-10T22:25:22.862Z,100.00
2023-05-10T22:27:49.466Z,100.00
2023-05-10T22:30:16.550Z,100.00
2023-05-10T22:32:43.572Z,100.00
2023-05-10T22:35:10.198Z,100.00
2023-05-10T22:37:36.817Z,100.00
2023-05-10T22:40:04.069Z,100.00
2023-05-10T22:42:30.779Z,100.00
2023-05-10T22:44:58.807Z,100.00
2023-05-10T22:47:25.732Z,100.00
2023-05-10T22:49:52.487Z,100.00
2023-05-10T22:52:19.166Z,100.00
2023-05-10T22:54:45.896Z,100.00
2023-05-10T22:57:12.820Z,100.00
2023-05-10T22:59:39.498Z,100.00
2023-05-10T23:02:06.297Z,100.00
2023-05-10T23:04:32.971Z,100.00
2023-05-10T23:06:59.626Z,100.00
2023-05-10T23:09:26.281Z,100.00
2023-05-10T23:11:52.933Z,100.00
2023-05-10T23:14:19.574Z,100.00
2023-05-10T23:16:46.238Z,100.00
2023-05-10T23:19:12.967Z,100.00
2023-05-10T23:21:39.582Z,100.00
2023-05-10T23:24:08.572Z,100.00
2023-05-10T23:26:35.306Z,100.00
2023-05-10T23:29:02.404Z,100.00
2023-05-10T23:31:29.083Z,100.00
2023-05-10T23:33:55.939Z,100.00
2023-05-10T23:36:22.576Z,100.00
2023-05-10T23:38:49.193Z,100.00
2023-05-10T23:41:15.827Z,100.00
2023-05-10T23:43:42.487Z,100.00
2023-05-10T23:46:09.180Z,100.00
2023-05-10T23:48:35.973Z,100.00
2023-05-10T23:51:02.652Z,100.00
2023-05-10T23:53:29.433Z,100.00
2023-05-10T23:55:56.191Z,100.00
2023-05-10T23:58:22.880Z,100.00
